Time;durP1;ratioP1;P1;durP2;ratioP2;P2;SDS_P1;SDS_P2;PMS_P1;PMS_P2;Temp;Humidity;BMP_temperature;BMP_pressure;BME280_temperature;BME280_humidity;BME280_pressure;Samples;Min_cycle;Max_cycle;Signal;HPM_P1;HPM_P2
2022/08/18 00:01:00;;;;;;;50.70;45.50;;;;;;;19.32;96.68;101142.56;5111746;28;20452;-61
2022/08/18 00:03:28;;;;;;;50.80;45.58;;;;;;;19.35;96.75;101150.38;5094640;28;20414;-61
2022/08/18 00:05:54;;;;;;;51.25;45.90;;;;;;;19.32;96.46;101157.91;5113117;28;20036;-61
2022/08/18 00:08:19;;;;;;;53.58;47.78;;;;;;;19.35;97.02;101154.94;5111491;28;20011;-61
2022/08/18 00:10:45;;;;;;;52.97;47.30;;;;;;;19.34;97.38;101172.97;5112020;28;20028;-61
2022/08/18 00:13:11;;;;;;;51.78;46.45;;;;;;;19.33;97.72;101168.56;5112563;28;20054;-61
2022/08/18 00:15:40;;;;;;;54.67;48.05;;;;;;;19.27;97.80;101169.16;5145829;27;20084;-61
2022/08/18 00:18:05;;;;;;;54.67;48.78;;;;;;;19.33;98.01;101168.56;5112770;28;20123;-61
2022/08/18 00:20:31;;;;;;;51.72;46.45;;;;;;;19.37;97.93;101166.44;5112806;28;20538;-61
2022/08/18 00:22:57;;;;;;;53.88;48.22;;;;;;;19.33;98.31;101167.72;5111716;28;20038;-60
2022/08/18 00:25:25;;;;;;;52.75;47.28;;;;;;;19.28;98.47;101158.22;5112697;28;20051;-60
2022/08/18 00:27:50;;;;;;;53.53;47.80;;;;;;;19.31;98.74;101172.41;5110789;28;20020;-61
2022/08/18 00:30:19;;;;;;;54.35;48.08;;;;;;;19.27;98.92;101179.94;5111043;28;20068;-60
2022/08/18 00:32:51;;;;;;;;;;;;;;;19.41;97.11;101176.78;5113202;28;20027;-61
2022/08/18 00:35:27;;;;;;;51.25;45.83;;;;;;;19.35;98.51;101176.50;5112717;28;20381;-61
2022/08/18 00:37:54;;;;;;;54.75;46.92;;;;;;;19.36;98.94;101175.53;5112258;28;20035;-61
2022/08/18 00:40:28;;;;;;;51.10;45.75;;;;;;;19.34;98.88;101181.06;5112561;28;20023;-61
2022/08/18 00:42:58;;;;;;;52.28;46.85;;;;;;;19.27;98.41;101186.19;5111562;28;20382;-61
2022/08/18 00:45:29;;;;;;;52.63;47.03;;;;;;;19.25;99.12;101193.56;5111313;28;20052;-60
2022/08/18 00:47:54;;;;;;;51.70;46.17;;;;;;;19.26;99.36;101189.84;5112013;28;20386;-61
2022/08/18 00:50:27;;;;;;;50.50;45.10;;;;;;;19.23;99.12;101186.59;5112181;28;20038;-61
2022/08/18 00:52:59;;;;;;;51.85;45.58;;;;;;;19.22;99.26;101191.16;5110948;28;20107;-61
2022/08/18 00:55:29;;;;;;;50.42;45.22;;;;;;;19.22;99.23;101180.38;5112224;28;20051;-60
2022/08/18 00:58:01;;;;;;;48.85;43.65;;;;;;;19.21;98.64;101181.38;5111213;28;20397;-61
2022/08/18 01:00:26;;;;;;;49.55;44.35;;;;;;;19.24;98.56;101172.16;5112407;28;20016;-61
2022/08/18 01:02:58;;;;;;;49.00;43.50;;;;;;;19.10;98.94;101167.19;5110926;28;20482;-61
2022/08/18 01:05:32;;;;;;;48.58;42.60;;;;;;;19.16;98.44;101182.81;5112424;28;20023;-60
2022/08/18 01:07:58;;;;;;;46.42;41.80;;;;;;;19.10;98.18;101183.38;5111624;28;20030;-61
2022/08/18 01:10:27;;;;;;;47.55;42.67;;;;;;;19.09;98.33;101176.25;5112056;28;20057;-61
2022/08/18 01:12:57;;;;;;;47.33;42.42;;;;;;;19.08;98.58;101169.19;5111456;28;20027;-61
2022/08/18 01:15:24;;;;;;;45.88;41.10;;;;;;;19.01;97.59;101167.06;5112298;28;20042;-60
2022/08/18 01:21:49;;;;;;;44.95;40.28;;;;;;;18.97;97.67;101156.69;5112051;28;20076;-61
2022/08/18 01:23:46;;;;;;;44.97;40.38;;;;;;;18.95;97.58;101164.94;5112101;28;20032;-61
2022/08/18 01:26:13;;;;;;;44.92;40.25;;;;;;;18.94;97.74;101165.06;5111976;28;20020;-61
2022/08/18 01:28:40;;;;;;;45.83;41.05;;;;;;;18.83;98.15;101161.56;5111258;28;20027;-60
2022/08/18 01:31:08;;;;;;;44.75;40.30;;;;;;;18.88;98.09;101168.34;5111971;28;20478;-61
2022/08/18 01:33:40;;;;;;;43.90;39.47;;;;;;;18.82;97.70;101170.63;5111882;28;20531;-61
2022/08/18 01:36:15;;;;;;;44.30;39.45;;;;;;;18.85;97.60;101161.38;5111738;28;20027;-61
2022/08/18 01:38:41;;;;;;;44.17;39.75;;;;;;;18.81;97.64;101163.53;5110584;28;20027;-61
2022/08/18 01:41:06;;;;;;;44.97;40.20;;;;;;;18.84;97.48;101170.47;5112003;28;20019;-61
2022/08/18 01:43:33;;;;;;;44.80;39.95;;;;;;;18.77;97.91;101164.81;5092939;28;20385;-61
2022/08/18 01:46:00;;;;;;;43.85;39.17;;;;;;;18.66;97.70;101156.84;5111778;28;20032;-61
2022/08/18 01:48:26;;;;;;;45.70;40.63;;;;;;;18.63;97.79;101159.81;5110386;28;20048;-61
2022/08/18 01:50:55;;;;;;;43.53;39.05;;;;;;;18.62;98.39;101155.44;5111855;28;20045;-61
2022/08/18 01:53:21;;;;;;;44.13;39.53;;;;;;;18.63;98.47;101159.81;5111707;28;20366;-61
2022/08/18 01:55:49;;;;;;;43.10;38.28;;;;;;;18.60;97.85;101154.72;5110026;28;20284;-61
2022/08/18 01:58:16;;;;;;;41.75;36.97;;;;;;;18.59;97.73;101161.94;5111233;28;20456;-61
2022/08/18 02:00:43;;;;;;;40.80;36.42;;;;;;;18.64;97.51;101160.66;5111801;28;20034;-61
2022/08/18 02:03:13;;;;;;;43.13;38.50;;;;;;;18.66;97.40;101164.06;5110248;28;20084;-61
2022/08/18 02:05:41;;;;;;;;;;;;;;;18.78;96.39;101158.44;5112151;28;20058;-61
2022/08/18 02:08:07;;;;;;;;;;;;;;;18.81;95.94;101155.44;5111907;28;19912;-61
2022/08/18 02:10:33;;;;;;;39.38;35.38;;;;;;;18.58;96.46;101148.59;5111316;28;19964;-61
2022/08/18 02:12:59;;;;;;;40.55;36.25;;;;;;;18.66;96.68;101158.69;5110839;28;20047;-61
2022/08/18 02:15:25;;;;;;;43.08;36.92;;;;;;;18.59;96.68;101151.16;5127661;28;20028;-61
2022/08/18 02:17:50;;;;;;;40.40;36.10;;;;;;;18.58;96.78;101154.84;5111252;28;20032;-61
2022/08/18 02:20:18;;;;;;;40.88;36.47;;;;;;;18.50;97.19;101161.91;5110433;28;20031;-61
2022/08/18 02:22:45;;;;;;;41.58;37.28;;;;;;;18.51;97.10;101163.66;5115139;28;20019;-61
2022/08/18 02:25:14;;;;;;;40.75;36.15;;;;;;;18.53;96.80;101164.34;5113786;28;20485;-61
2022/08/18 02:27:40;;;;;;;40.90;36.53;;;;;;;18.51;96.76;101175.25;5114335;28;20102;-61
2022/08/18 02:30:09;;;;;;;40.10;35.35;;;;;;;18.49;96.94;101171.00;5114932;28;20111;-61
2022/08/18 02:32:35;;;;;;;41.10;36.83;;;;;;;18.42;96.68;101165.34;5114767;28;20186;-60
2022/08/18 02:35:07;;;;;;;38.20;34.35;;;;;;;18.46;96.57;101163.22;5113633;28;20047;-61
2022/08/18 02:37:34;;;;;;;40.00;35.75;;;;;;;18.47;96.86;101173.84;5114560;28;20024;-61
2022/08/18 02:40:02;;;;;;;39.53;35.33;;;;;;;18.42;96.62;101170.72;5114461;28;20055;-61
2022/08/18 02:42:27;;;;;;;38.83;34.70;;;;;;;18.47;96.52;101181.06;5113578;28;20032;-61
2022/08/18 02:44:55;;;;;;;38.80;34.67;;;;;;;18.36;96.37;101174.81;5095948;28;20042;-60
2022/08/18 02:47:21;;;;;;;38.85;34.67;;;;;;;18.39;96.45;101177.22;5113378;28;20036;-60
2022/08/18 02:49:50;;;;;;;37.97;34.20;;;;;;;18.38;96.14;101178.25;5114574;28;20461;-61
2022/08/18 02:52:17;;;;;;;38.42;33.20;;;;;;;18.40;95.53;101188.84;5112896;28;20081;-60
2022/08/18 02:54:43;;;;;;;40.50;35.10;;;;;;;18.43;95.88;101180.50;5112930;28;20040;-61
2022/08/18 02:57:10;;;;;;;39.15;34.40;;;;;;;18.37;95.46;101186.44;5095813;28;20567;-61
2022/08/18 02:59:37;;;;;;;37.63;33.90;;;;;;;18.35;95.24;101169.56;5113949;28;20486;-61
2022/08/18 03:02:07;;;;;;;40.95;36.60;;;;;;;18.32;96.16;101168.03;5113166;28;20427;-61
2022/08/18 03:04:32;;;;;;;;;;;;;;;18.48;94.79;101170.16;5113384;28;20019;-61
2022/08/18 03:07:01;;;;;;;37.30;33.45;;;;;;;18.27;95.48;101170.28;5114212;27;19915;-60
2022/08/18 03:09:30;;;;;;;37.72;34.08;;;;;;;18.27;95.70;101177.50;5112848;28;20027;-60
2022/08/18 03:11:57;;;;;;;36.30;32.67;;;;;;;18.28;95.02;101181.88;5114160;28;20027;-61
2022/08/18 03:14:23;;;;;;;38.47;34.42;;;;;;;18.25;95.26;101183.00;5113764;28;20054;-61
2022/08/18 03:16:49;;;;;;;38.97;34.80;;;;;;;18.19;95.79;101182.72;5112839;28;20058;-60
2022/08/18 03:19:15;;;;;;;37.90;34.17;;;;;;;18.21;95.84;101173.53;5113919;28;20034;-61
2022/08/18 03:21:42;;;;;;;38.53;34.45;;;;;;;18.25;95.56;101182.16;5112997;28;20051;-61
2022/08/18 03:24:07;;;;;;;37.28;33.15;;;;;;;18.19;95.08;101185.41;5113541;27;20027;-61
2022/08/18 03:26:33;;;;;;;38.17;34.28;;;;;;;18.13;95.44;101194.91;5113857;28;20027;-61
2022/08/18 03:28:59;;;;;;;38.03;34.05;;;;;;;17.97;95.56;101173.88;5113216;28;20020;-61
2022/08/18 03:31:27;;;;;;;38.95;34.90;;;;;;;18.11;95.64;101191.47;5113563;28;20027;-61
2022/08/18 03:33:54;;;;;;;38.72;34.80;;;;;;;18.12;95.63;101187.81;5112436;28;20546;-60
2022/08/18 03:36:23;;;;;;;40.45;35.30;;;;;;;18.07;96.47;101190.06;5113677;28;20492;-61
2022/08/18 03:38:49;;;;;;;;;;;;;;;18.23;94.83;101198.44;5112329;28;20397;-61
2022/08/18 03:41:17;;;;;;;38.95;33.92;;;;;;;18.10;94.96;101196.00;5113708;28;19911;-61
2022/08/18 03:43:43;;;;;;;37.90;33.83;;;;;;;18.04;94.52;101196.56;5113202;28;20031;-61
2022/08/18 03:46:13;;;;;;;38.00;34.28;;;;;;;18.00;95.58;101199.66;5112061;28;20028;-61
2022/08/18 03:48:42;;;;;;;38.83;34.70;;;;;;;18.01;94.77;101193.31;5112087;28;20072;-61
2022/08/18 03:51:13;;;;;;;37.20;32.92;;;;;;;17.99;94.55;101196.13;5112078;28;20074;-61
2022/08/18 03:53:39;;;;;;;36.25;32.65;;;;;;;17.98;94.22;101196.28;5113289;28;20420;-61
2022/08/18 03:56:17;;;;;;;37.70;33.75;;;;;;;17.98;94.75;101198.97;5111870;28;20516;-61
2022/08/18 03:58:44;;;;;;;35.90;32.38;;;;;;;17.85;94.27;101185.72;5111429;28;20032;-61
2022/08/18 04:01:14;;;;;;;38.60;34.60;;;;;;;17.88;94.45;101196.22;5111831;28;20023;-61
2022/08/18 04:03:43;;;;;;;37.78;33.97;;;;;;;17.86;94.48;101187.44;5095047;28;20432;-60
2022/08/18 04:06:27;;;;;;;39.55;35.33;;;;;;;17.85;95.44;101183.91;5112698;28;20497;-61
2022/08/18 04:08:54;;;;;;;38.47;34.40;;;;;;;17.86;96.01;101193.66;5112988;28;20025;-61
2022/08/18 04:11:20;;;;;;;39.70;35.42;;;;;;;17.86;95.95;101190.97;5113301;28;20015;-61
2022/08/18 04:13:46;;;;;;;40.17;35.90;;;;;;;17.93;96.46;101185.91;5112461;28;20037;-61
2022/08/18 04:16:12;;;;;;;41.05;35.95;;;;;;;17.87;96.34;101179.22;5113165;28;20576;-61
2022/08/18 04:18:41;;;;;;;39.08;35.00;;;;;;;17.95;95.82;101188.47;5112641;28;20023;-61
2022/08/18 04:21:10;;;;;;;43.35;34.75;;;;;;;17.96;95.98;101190.16;5112558;28;20023;-61
2022/08/18 04:23:41;;;;;;;41.60;37.25;;;;;;;17.94;95.95;101195.66;5112676;28;20088;-61
2022/08/18 04:26:11;;;;;;;41.63;36.97;;;;;;;17.97;95.78;101197.22;5112686;28;20027;-61
2022/08/18 04:28:41;;;;;;;39.45;35.20;;;;;;;17.88;95.57;101194.41;5112106;28;20016;-61
2022/08/18 04:31:16;;;;;;;40.92;36.65;;;;;;;17.89;96.96;101188.00;5112649;28;20051;-61
2022/08/18 04:33:42;;;;;;;41.95;37.53;;;;;;;17.97;96.64;101187.34;5112759;28;20367;-61
2022/08/18 04:36:11;;;;;;;40.72;36.47;;;;;;;17.98;96.92;101188.19;5111051;28;20100;-60
2022/08/18 04:38:38;;;;;;;42.35;37.95;;;;;;;17.96;96.91;101191.00;5112281;28;20032;-61
2022/08/18 04:41:05;;;;;;;43.90;39.30;;;;;;;17.93;97.25;101194.81;5112295;28;20048;-60
2022/08/18 04:43:33;;;;;;;41.72;37.45;;;;;;;17.98;97.30;101196.28;5111260;28;20027;-60
2022/08/18 04:46:00;;;;;;;44.78;40.15;;;;;;;18.03;97.27;101194.88;5112394;28;20474;-61
2022/08/18 04:48:33;;;;;;;47.63;40.95;;;;;;;17.98;97.83;101199.81;5110901;28;20024;-61
2022/08/18 04:51:10;;;;;;;44.97;39.10;;;;;;;18.05;97.46;101208.19;5110737;28;20035;-61
2022/08/18 04:53:46;;;;;;;45.28;39.78;;;;;;;18.05;97.51;101213.56;5112195;28;20062;-61
2022/08/18 04:56:28;;;;;;;49.90;43.13;;;;;;;18.10;98.11;101214.00;5111988;28;20405;-61
2022/08/18 04:59:07;;;;;;;50.45;42.63;;;;;;;18.07;97.84;101215.13;5111474;28;20464;-60
2022/08/18 05:01:39;;;;;;;50.10;41.55;;;;;;;18.11;97.89;101213.00;5112277;28;20072;-61
2022/08/18 05:04:05;;;;;;;48.10;41.83;;;;;;;18.02;98.25;101206.59;5111872;28;20049;-60
2022/08/18 05:06:31;;;;;;;47.65;42.38;;;;;;;18.02;98.43;101203.06;5112140;28;20020;-61
2022/08/18 05:09:05;;;;;;;45.67;40.67;;;;;;;17.98;98.82;101215.94;5110833;28;20103;-61
2022/08/18 05:11:34;;;;;;;48.35;42.60;;;;;;;17.89;99.06;101214.06;5144393;27;20046;-61
2022/08/18 05:14:05;;;;;;;49.53;41.08;;;;;;;17.96;98.79;101219.75;5111405;28;20360;-61
2022/08/18 05:16:35;;;;;;;47.15;42.30;;;;;;;17.96;98.73;101223.31;5112023;28;20016;-61
2022/08/18 05:19:06;;;;;;;48.28;41.45;;;;;;;18.05;99.09;101227.88;5111676;28;20039;-61
2022/08/18 05:21:32;;;;;;;51.08;40.97;;;;;;;18.13;98.48;101235.28;5111133;28;20024;-61
2022/08/18 05:24:01;;;;;;;47.13;40.70;;;;;;;18.10;98.83;101231.00;5111721;28;20032;-60
2022/08/18 05:26:27;;;;;;;52.15;41.15;;;;;;;18.08;98.86;101226.75;5111784;28;20028;-61
2022/08/18 05:28:52;;;;;;;42.78;38.28;;;;;;;18.17;98.10;101220.53;5111288;28;20030;-60
2022/08/18 05:31:20;;;;;;;45.63;38.38;;;;;;;18.12;98.06;101229.03;5111634;28;20023;-61
2022/08/18 05:33:47;;;;;;;45.65;40.00;;;;;;;18.07;98.16;101225.91;5111429;28;20076;-60
2022/08/18 05:36:42;;;;;;;48.55;41.15;;;;;;;18.15;97.88;101225.22;5111893;28;20476;-61
2022/08/18 05:39:16;;;;;;;43.28;38.53;;;;;;;18.17;97.47;101234.00;5111704;28;20031;-61
2022/08/18 05:41:49;;;;;;;44.78;38.75;;;;;;;18.13;97.47;101235.28;5112019;28;20022;-60
2022/08/18 05:44:20;;;;;;;43.13;38.55;;;;;;;18.20;97.10;101238.25;5109874;28;20034;-61
2022/08/18 05:46:57;;;;;;;43.45;38.03;;;;;;;18.20;97.18;101228.34;5112074;28;20095;-61
2022/08/18 05:49:25;;;;;;;43.83;38.20;;;;;;;18.23;97.46;101227.22;5111119;28;20088;-61
2022/08/18 05:51:59;;;;;;;44.60;39.53;;;;;;;18.31;97.54;101236.31;5111739;28;20043;-61
2022/08/18 05:57:22;;;;;;;41.03;36.10;;;;;;;18.29;97.25;101242.81;5114915;28;20077;-60
2022/08/18 05:59:52;;;;;;;41.58;37.13;;;;;;;18.35;97.62;101248.53;5115038;28;20031;-61
2022/08/18 06:02:33;;;;;;;;;;;;;;;18.49;96.30;101241.88;5115461;28;20056;-61
2022/08/18 06:05:07;;;;;;;43.70;37.00;;;;;;;18.37;97.29;101245.69;5115432;28;19965;-61
2022/08/18 06:07:48;;;;;;;42.40;37.28;;;;;;;18.39;96.68;101252.66;5115168;28;20478;-61
2022/08/18 06:10:14;;;;;;;43.28;35.83;;;;;;;18.43;97.17;101244.28;5115283;28;20103;-61
2022/08/18 06:12:44;;;;;;;43.08;36.97;;;;;;;18.43;97.34;101241.59;5114502;28;20024;-61
2022/08/18 06:15:26;;;;;;;43.92;36.53;;;;;;;18.44;97.60;101233.38;5115061;28;20030;-61
2022/08/18 06:18:18;;;;;;;45.47;35.50;;;;;;;18.46;97.21;101235.94;5114684;28;20062;-61
2022/08/18 06:21:04;;;;;;;42.28;36.15;;;;;;;18.51;97.46;101239.91;5115198;27;20088;-61
2022/08/18 06:23:49;;;;;;;44.83;38.20;;;;;;;18.52;97.32;101243.47;5114735;28;20057;-61
2022/08/18 06:26:26;;;;;;;43.03;37.60;;;;;;;18.59;97.36;101244.63;5113846;28;20390;-61
2022/08/18 06:29:29;;;;;;;43.95;37.40;;;;;;;18.65;97.27;101260.22;5112952;28;20042;-61
2022/08/18 06:32:13;;;;;;;41.67;36.83;;;;;;;18.68;96.57;101259.94;5113608;28;20096;-61
2022/08/18 06:34:54;;;;;;;46.55;37.63;;;;;;;18.67;97.50;101257.38;5113261;28;20110;-61
2022/08/18 06:37:29;;;;;;;43.38;38.67;;;;;;;18.73;96.95;101259.50;5114770;28;20073;-61
2022/08/18 06:40:03;;;;;;;43.03;38.13;;;;;;;18.70;97.05;101266.03;5114610;28;20030;-61
2022/08/18 06:42:29;;;;;;;45.13;39.63;;;;;;;18.72;96.06;101260.50;5147222;27;20096;-61
2022/08/18 06:45:11;;;;;;;51.13;40.10;;;;;;;18.76;97.37;101270.88;5112648;28;20107;-61
2022/08/18 06:48:05;;;;;;;46.35;40.78;;;;;;;18.80;96.50;101266.09;5114317;28;20031;-61
2022/08/18 06:51:08;;;;;;;43.50;38.47;;;;;;;18.95;97.48;101269.22;5113167;28;20020;-61
2022/08/18 06:54:00;;;;;;;44.70;39.15;;;;;;;18.89;95.77;101262.56;5081881;28;20031;-61
2022/08/18 06:56:33;;;;;;;45.28;39.67;;;;;;;18.86;96.25;101265.53;5112936;28;20109;-60
2022/08/18 06:59:30;;;;;;;44.17;39.50;;;;;;;18.90;96.06;101266.94;5112365;28;20483;-61
2022/08/18 07:02:01;;;;;;;42.38;37.90;;;;;;;18.98;96.01;101267.09;5101580;27;20047;-60
2022/08/18 07:04:36;;;;;;;43.70;38.67;;;;;;;19.03;96.38;101263.97;5114136;28;20026;-60
2022/08/18 07:07:19;;;;;;;42.70;38.03;;;;;;;19.06;95.59;101267.25;5112442;28;20110;-61
2022/08/18 07:09:45;;;;;;;41.97;37.47;;;;;;;18.99;95.10;101268.78;5113025;28;20031;-61
2022/08/18 07:12:19;;;;;;;42.50;37.92;;;;;;;19.03;95.81;101266.66;5112992;28;20493;-61
2022/08/18 07:14:50;;;;;;;40.80;36.42;;;;;;;19.05;95.43;101272.78;5113432;28;20031;-60
2022/08/18 07:17:28;;;;;;;38.90;34.75;;;;;;;19.02;94.63;101263.13;5113791;28;20047;-61
2022/08/18 07:20:07;;;;;;;39.83;35.65;;;;;;;18.98;95.99;101271.66;5114088;28;20056;-61
2022/08/18 07:22:51;;;;;;;;;;;;;;;19.22;94.52;101273.91;5112987;28;20030;-61
2022/08/18 07:25:23;;;;;;;33.15;29.65;;;;;;;19.27;93.66;101272.50;5112422;28;19908;-61
2022/08/18 07:27:50;;;;;;;34.05;30.60;;;;;;;19.44;93.18;101261.94;5113259;28;20489;-60
2022/08/18 07:30:18;;;;;;;40.58;35.90;;;;;;;19.58;92.89;101272.31;5113549;28;20164;-60
2022/08/18 07:32:46;;;;;;;36.13;32.30;;;;;;;19.50;91.57;101277.56;5112429;28;20375;-61
2022/08/18 07:35:18;;;;;;;36.58;32.63;;;;;;;19.41;92.92;101273.03;5113738;28;20389;-60
2022/08/18 07:38:08;;;;;;;35.30;31.48;;;;;;;19.48;93.09;101266.94;5113533;28;20022;-60
2022/08/18 07:41:03;;;;;;;35.78;30.95;;;;;;;19.62;93.02;101271.03;5113571;28;20069;-60
2022/08/18 07:43:48;;;;;;;32.63;29.38;;;;;;;19.68;93.65;101272.34;5109807;28;20039;-61
2022/08/18 07:46:42;;;;;;;30.20;27.20;;;;;;;19.77;92.69;101274.16;5112165;28;20463;-61
2022/08/18 07:49:09;;;;;;;30.67;27.58;;;;;;;19.85;91.55;101278.81;5113191;28;20072;-60
2022/08/18 07:51:42;;;;;;;34.58;31.00;;;;;;;19.82;90.39;101277.25;5113412;28;20027;-61
2022/08/18 07:54:21;;;;;;;34.35;29.75;;;;;;;19.89;91.96;101277.53;5113002;28;20027;-61
2022/08/18 07:57:09;;;;;;;32.78;29.42;;;;;;;19.95;91.12;101277.78;5111794;28;20058;-60
2022/08/18 07:59:38;;;;;;;33.35;29.85;;;;;;;19.91;91.50;101275.50;5111258;28;20030;-61
2022/08/18 08:02:21;;;;;;;31.38;28.17;;;;;;;19.92;90.73;101286.19;5113060;28;20024;-61
2022/08/18 08:05:09;;;;;;;31.58;28.23;;;;;;;19.84;90.61;101277.94;5112900;28;20051;-61
2022/08/18 08:07:52;;;;;;;30.05;27.15;;;;;;;19.85;91.43;101284.19;5112862;28;20327;-61
2022/08/18 08:10:29;;;;;;;28.65;25.65;;;;;;;19.94;90.14;101275.22;5113087;28;20031;-61
2022/08/18 08:13:04;;;;;;;27.23;24.55;;;;;;;20.22;88.41;101286.06;5110838;28;20028;-60
2022/08/18 08:15:38;;;;;;;27.83;24.77;;;;;;;20.39;86.99;101285.28;5111385;28;20031;-60
2022/08/18 08:18:15;;;;;;;25.95;23.25;;;;;;;20.73;86.08;101280.13;5111931;28;20019;-61
2022/08/18 08:20:51;;;;;;;26.13;23.33;;;;;;;21.14;85.01;101276.97;5111991;28;20019;-60
2022/08/18 08:23:56;;;;;;;29.05;25.83;;;;;;;21.42;85.70;101272.38;5113083;28;20027;-61
2022/08/18 08:26:25;;;;;;;24.80;22.42;;;;;;;21.62;85.09;101286.53;5111364;28;20019;-60
2022/08/18 08:29:00;;;;;;;25.13;22.55;;;;;;;21.50;82.94;101288.63;5111805;28;20050;-60
2022/08/18 08:31:50;;;;;;;22.88;20.58;;;;;;;21.34;84.34;101286.63;5112564;28;20405;-60
2022/08/18 08:34:55;;;;;;;23.73;21.23;;;;;;;21.26;84.95;101287.41;5112520;28;20389;-60
2022/08/18 08:37:29;;;;;;;23.38;20.50;;;;;;;21.09;84.04;101291.84;5101698;28;20036;-61
2022/08/18 08:40:01;;;;;;;21.20;18.95;;;;;;;21.15;82.84;101289.50;5112501;28;20055;-61
2022/08/18 08:42:40;;;;;;;21.00;18.75;;;;;;;21.37;84.50;101289.06;5112209;28;20038;-61
2022/08/18 08:45:11;;;;;;;18.97;17.03;;;;;;;21.62;80.38;101289.22;5112481;28;20035;-60
2022/08/18 08:47:48;;;;;;;23.45;20.75;;;;;;;21.74;80.83;101288.84;5112217;28;20265;-60
2022/08/18 08:50:19;;;;;;;22.77;20.38;;;;;;;21.78;80.84;101297.50;5112486;28;20051;-60
2022/08/18 08:53:08;;;;;;;21.58;19.38;;;;;;;21.68;80.67;101303.00;5112323;28;20034;-61
2022/08/18 08:55:40;;;;;;;20.40;18.30;;;;;;;21.69;79.92;101298.44;5110646;28;20024;-60
2022/08/18 08:58:25;;;;;;;18.90;17.00;;;;;;;21.81;80.55;101304.44;5111744;28;20448;-60
2022/08/18 09:00:52;;;;;;;19.70;17.23;;;;;;;21.77;77.54;101296.66;5112143;28;20533;-60
2022/08/18 09:03:46;;;;;;;19.15;17.27;;;;;;;22.02;79.19;101301.34;5111828;28;20054;-60
2022/08/18 09:06:31;;;;;;;18.33;16.42;;;;;;;22.20;77.62;101297.59;5112119;28;20027;-60
2022/08/18 09:09:42;;;;;;;18.60;16.67;;;;;;;22.49;78.07;101298.22;5112077;28;20028;-61
2022/08/18 09:12:40;;;;;;;17.73;16.02;;;;;;;22.53;74.86;101300.47;5047653;28;20115;-61
2022/08/18 09:15:32;;;;;;;16.13;14.63;;;;;;;22.94;76.39;101294.28;5040148;28;20235;-61
2022/08/18 09:18:07;;;;;;;14.55;13.05;;;;;;;23.16;74.35;101300.97;5109148;28;20130;-61
2022/08/18 09:20:51;;;;;;;15.40;13.88;;;;;;;23.20;75.77;101305.88;5111820;28;20062;-61
2022/08/18 09:23:30;;;;;;;14.00;12.70;;;;;;;23.17;72.70;101303.50;5111709;28;20035;-61
2022/08/18 09:26:01;;;;;;;11.48;10.27;;;;;;;23.16;71.91;101298.25;5111482;28;20023;-61
2022/08/18 09:28:27;;;;;;;15.00;13.40;;;;;;;23.27;71.61;101292.50;5110435;28;20032;-60
2022/08/18 09:31:04;;;;;;;14.48;12.95;;;;;;;23.13;72.47;101296.72;5115047;28;20035;-61
2022/08/18 09:33:44;;;;;;;12.70;11.30;;;;;;;23.31;73.52;101283.00;5114479;28;20046;-60
2022/08/18 09:36:19;;;;;;;10.50;9.50;;;;;;;23.37;72.20;101278.75;5114708;28;20497;-61
2022/08/18 09:42:16;;;;;;;15.65;11.95;;;;;;;22.95;71.96;101293.31;5116058;28;20038;-61
2022/08/18 09:44:47;;;;;;;13.68;12.27;;;;;;;22.83;75.25;101290.88;5115615;28;20386;-61
2022/08/18 09:47:24;;;;;;;14.85;13.50;;;;;;;22.77;73.83;101282.56;5115917;28;20418;-61
2022/08/18 09:49:49;;;;;;;16.38;14.77;;;;;;;22.71;72.77;101292.22;5115710;28;20042;-61
2022/08/18 09:52:21;;;;;;;17.00;13.27;;;;;;;22.82;73.40;101288.31;5115869;28;20023;-61
2022/08/18 09:54:52;;;;;;;14.80;13.15;;;;;;;22.76;73.86;101286.28;5115337;28;20063;-61
2022/08/18 09:57:26;;;;;;;16.10;14.18;;;;;;;22.71;75.37;101283.19;5115204;28;20059;-61
2022/08/18 10:00:03;;;;;;;15.57;13.85;;;;;;;22.70;74.47;101290.50;5113758;28;20402;-61
2022/08/18 10:02:28;;;;;;;15.10;13.70;;;;;;;22.61;74.81;101292.34;5114139;28;20027;-61
2022/08/18 10:05:15;;;;;;;14.13;12.60;;;;;;;22.60;72.16;101287.94;5115654;28;20034;-61
2022/08/18 10:07:44;;;;;;;13.68;12.30;;;;;;;22.41;71.94;101290.91;5113847;27;20034;-61
2022/08/18 10:10:12;;;;;;;13.38;11.25;;;;;;;22.35;73.01;101292.41;5115204;27;20547;-61
2022/08/18 10:12:47;;;;;;;13.90;10.60;;;;;;;22.45;74.07;101287.72;5114914;28;20148;-61
2022/08/18 10:15:23;;;;;;;11.43;10.32;;;;;;;22.64;72.36;101283.88;5115632;28;20331;-60
2022/08/18 10:17:51;;;;;;;11.38;10.27;;;;;;;22.67;72.81;101285.41;5114929;28;20386;-61
2022/08/18 10:20:37;;;;;;;13.30;11.57;;;;;;;23.01;72.04;101276.38;5115348;28;20042;-61
2022/08/18 10:23:04;;;;;;;11.18;10.05;;;;;;;23.55;69.35;101285.69;5114707;28;20023;-61
2022/08/18 10:25:30;;;;;;;12.25;10.88;;;;;;;23.86;67.78;101284.19;5115349;28;20027;-61
2022/08/18 10:27:58;;;;;;;12.82;10.02;;;;;;;23.97;65.10;101286.50;5114532;28;20507;-61
2022/08/18 10:30:32;;;;;;;10.90;9.90;;;;;;;23.97;67.01;101278.34;5113959;28;20031;-61
2022/08/18 10:32:59;;;;;;;11.35;10.25;;;;;;;23.79;66.08;101267.69;5114604;28;20030;-61
2022/08/18 10:35:34;;;;;;;11.10;9.65;;;;;;;23.83;64.76;101269.06;5113530;28;20023;-61
2022/08/18 10:38:39;;;;;;;10.02;9.00;;;;;;;23.96;67.01;101266.63;5114320;28;20028;-61
2022/08/18 10:41:17;;;;;;;10.98;8.82;;;;;;;23.96;64.78;101271.22;5113922;28;20067;-61
2022/08/18 10:43:47;;;;;;;10.73;9.10;;;;;;;23.86;64.28;101271.44;5114446;28;20020;-61
2022/08/18 10:46:16;;;;;;;10.88;9.65;;;;;;;23.82;63.82;101275.50;5114609;28;20261;-61
2022/08/18 10:48:44;;;;;;;10.30;9.30;;;;;;;23.75;64.67;101274.50;5114867;28;20109;-61
2022/08/18 10:51:10;;;;;;;9.20;8.43;;;;;;;23.76;65.00;101274.31;5113426;28;20032;-61
2022/08/18 10:54:06;;;;;;;15.75;9.65;;;;;;;23.82;66.18;101288.25;5114063;28;20512;-61
2022/08/18 10:56:40;;;;;;;10.25;8.70;;;;;;;23.82;64.93;101277.38;5114172;28;20047;-61
2022/08/18 10:59:24;;;;;;;11.15;9.23;;;;;;;23.97;67.95;101275.63;5112574;28;20464;-61
2022/08/18 11:02:37;;;;;;;8.70;8.00;;;;;;;24.16;67.80;101280.69;5113089;28;20046;-61
2022/08/18 11:05:09;;;;;;;9.30;8.40;;;;;;;24.16;64.41;101275.25;5106232;28;20035;-61
2022/08/18 11:07:41;;;;;;;9.00;7.03;;;;;;;24.23;65.01;101280.81;5113220;27;20309;-61
2022/08/18 11:10:19;;;;;;;8.75;7.80;;;;;;;24.23;65.87;101280.81;5114184;28;20023;-61
2022/08/18 11:13:10;;;;;;;9.85;8.00;;;;;;;24.25;65.74;101270.63;5114053;28;20030;-61
2022/08/18 11:15:36;;;;;;;9.68;8.50;;;;;;;24.10;64.04;101267.78;5114145;28;20035;-61
2022/08/18 11:18:33;;;;;;;11.05;8.32;;;;;;;24.12;64.17;101263.03;5113871;28;20026;-61
2022/08/18 11:21:36;;;;;;;9.52;7.32;;;;;;;24.22;66.16;101262.81;5105967;28;20031;-61
2022/08/18 11:24:10;;;;;;;16.77;7.40;;;;;;;24.37;61.73;101252.88;5113830;28;20023;-61
2022/08/18 11:27:03;;;;;;;9.45;7.00;;;;;;;24.95;62.31;101244.44;5112591;28;20027;-61
2022/08/18 11:29:39;;;;;;;8.13;7.30;;;;;;;25.47;60.54;101246.38;5108551;27;20533;-61
2022/08/18 11:32:06;;;;;;;8.85;6.95;;;;;;;25.76;59.71;101249.16;5113824;28;20020;-61
2022/08/18 11:34:46;;;;;;;9.70;7.85;;;;;;;25.89;59.72;101243.09;5113410;28;20026;-61
2022/08/18 11:37:23;;;;;;;10.20;8.50;;;;;;;26.12;58.97;101237.53;5112025;28;20024;-61
2022/08/18 11:39:51;;;;;;;8.27;7.45;;;;;;;26.65;55.86;101235.50;5113588;28;20075;-61
2022/08/18 11:42:18;;;;;;;;;;;;;;;27.53;56.10;101236.13;5112874;28;20520;-61
2022/08/18 11:44:44;;;;;;;8.93;7.15;;;;;;;27.22;51.75;101225.56;5112747;28;19915;-61
2022/08/18 11:47:21;;;;;;;7.72;6.47;;;;;;;27.21;53.64;101225.75;5113411;27;20034;-61
2022/08/18 11:49:58;;;;;;;7.95;6.45;;;;;;;27.64;52.61;101224.63;5113151;28;20032;-61